createdAt,value
2023-03-07T00:04:23.355Z,4.44
2023-03-07T00:09:44.602Z,4.47
2023-03-07T00:14:52.669Z,4.45
2023-03-07T00:19:54.310Z,4.43
2023-03-07T00:24:56.005Z,4.36
2023-03-07T00:29:58.670Z,4.30
2023-03-07T00:35:04.359Z,4.21
2023-03-07T00:40:09.578Z,4.12
2023-03-07T00:45:13.719Z,4.05
2023-03-07T00:50:18.195Z,3.98
2023-03-07T00:55:20.683Z,3.95
2023-03-07T01:00:22.561Z,3.92
2023-03-07T01:05:24.754Z,3.94
2023-03-07T01:10:28.202Z,4.03
2023-03-07T01:15:30.869Z,4.18
2023-03-07T01:20:35.311Z,4.33
2023-03-07T01:25:39.530Z,4.42
2023-03-07T01:30:41.895Z,4.50
2023-03-07T01:35:44.099Z,4.59
2023-03-07T01:40:46.444Z,4.64
2023-03-07T01:45:48.495Z,4.67
2023-03-07T01:50:51.672Z,4.71
2023-03-07T01:55:53.692Z,4.71
2023-03-07T02:00:55.999Z,4.72
2023-03-07T02:06:05.532Z,4.70
2023-03-07T02:11:08.025Z,4.73
2023-03-07T02:16:10.181Z,4.69
2023-03-07T02:21:44.055Z,4.72
2023-03-07T02:26:51.939Z,4.75
2023-03-07T02:31:54.253Z,4.68
2023-03-07T02:37:04.982Z,4.73
2023-03-07T02:42:14.200Z,4.63
2023-03-07T02:47:21.641Z,4.61
2023-03-07T02:52:24.170Z,4.57
2023-03-07T02:57:26.370Z,4.50
2023-03-07T03:02:28.405Z,4.52
2023-03-07T03:07:30.530Z,4.49
2023-03-07T03:12:32.349Z,4.59
2023-03-07T03:17:34.312Z,4.62
2023-03-07T03:22:36.110Z,4.53
2023-03-07T03:27:40.009Z,4.51
2023-03-07T03:32:43.764Z,4.60
2023-03-07T03:37:46.914Z,4.65
2023-03-07T03:42:50.916Z,4.58
2023-03-07T03:47:53.159Z,4.61
2023-03-07T03:52:54.998Z,4.62
2023-03-07T03:57:58.521Z,4.63
2023-03-07T04:03:00.386Z,4.58
2023-03-07T04:08:03.131Z,4.62
2023-03-07T04:13:05.158Z,4.60
2023-03-07T04:18:07.277Z,4.52
2023-03-07T04:23:09.190Z,4.46
2023-03-07T04:28:11.053Z,4.37
2023-03-07T04:33:13.082Z,4.27
2023-03-07T04:38:15.666Z,4.08
2023-03-07T04:43:17.727Z,3.98
2023-03-07T04:48:20.175Z,3.81
2023-03-07T04:53:22.505Z,3.62
2023-03-07T04:58:25.119Z,3.47
2023-03-07T05:06:31.913Z,3.21
2023-03-07T05:11:33.995Z,3.00
2023-03-07T05:16:36.102Z,2.90
2023-03-07T05:21:40.102Z,2.90
2023-03-07T05:26:42.503Z,2.86
2023-03-07T05:31:44.376Z,2.79
2023-03-07T05:36:47.173Z,2.74
2023-03-07T05:41:49.148Z,2.76
2023-03-07T05:46:51.958Z,2.75
2023-03-07T05:51:54.300Z,2.74
2023-03-07T05:56:56.733Z,2.79
2023-03-07T06:01:59.441Z,2.91
2023-03-07T06:07:01.427Z,2.96
2023-03-07T06:12:03.634Z,3.05
2023-03-07T06:17:06.230Z,3.26
2023-03-07T06:22:09.091Z,3.53
2023-03-07T06:27:11.210Z,3.70
2023-03-07T06:32:13.070Z,3.91
2023-03-07T06:37:15.163Z,4.16
2023-03-07T06:42:16.862Z,4.35
2023-03-07T06:47:18.815Z,4.61
2023-03-07T06:52:20.697Z,4.80
2023-03-07T06:57:22.816Z,5.01
2023-03-07T07:02:25.140Z,5.18
2023-03-07T07:07:27.529Z,5.36
2023-03-07T07:12:29.401Z,5.64
2023-03-07T07:17:35.499Z,5.84
2023-03-07T07:22:37.338Z,6.00
2023-03-07T07:27:39.124Z,6.05
2023-03-07T07:32:41.456Z,6.08
2023-03-07T07:38:03.557Z,6.27
2023-03-07T07:43:05.814Z,6.48
2023-03-07T07:48:13.625Z,6.73
2023-03-07T07:53:18.743Z,6.92
2023-03-07T07:58:21.059Z,7.06
2023-03-07T08:03:23.794Z,7.14
2023-03-07T08:08:26.258Z,7.32
2023-03-07T08:13:28.700Z,7.51
2023-03-07T08:18:30.364Z,7.58
2023-03-07T08:23:32.219Z,7.62
2023-03-07T08:28:34.520Z,7.65
2023-03-07T08:33:36.232Z,7.87
2023-03-07T08:38:37.952Z,7.90
2023-03-07T08:43:39.875Z,7.63
2023-03-07T08:48:41.655Z,7.59
2023-03-07T08:53:44.874Z,7.49
2023-03-07T08:58:46.914Z,7.48
2023-03-07T09:03:48.657Z,7.69
2023-03-07T09:08:50.654Z,7.84
2023-03-07T09:13:53.331Z,7.73
2023-03-07T09:18:55.342Z,7.69
2023-03-07T09:23:57.118Z,7.60
2023-03-07T09:28:59.141Z,7.42
2023-03-07T09:34:00.821Z,7.08
2023-03-07T09:39:04.235Z,6.91
2023-03-07T09:44:33.174Z,7.02
2023-03-07T09:49:51.687Z,7.45
2023-03-07T09:55:00.566Z,7.82
2023-03-07T10:00:11.231Z,8.12
2023-03-07T10:05:38.852Z,8.52
2023-03-07T10:10:44.527Z,8.87
2023-03-07T10:15:50.742Z,8.98
2023-03-07T10:20:57.161Z,9.21
2023-03-07T10:26:09.635Z,9.37
2023-03-07T10:31:31.959Z,9.28
2023-03-07T10:36:51.571Z,9.09
2023-03-07T10:41:57.551Z,8.96
2023-03-07T10:47:00.162Z,8.90
2023-03-07T10:52:07.223Z,8.91
2023-03-07T10:57:13.188Z,8.89
2023-03-07T11:02:37.690Z,8.83
2023-03-07T11:07:39.623Z,8.75
2023-03-07T11:12:46.230Z,8.98
2023-03-07T11:17:49.070Z,9.20
2023-03-07T11:23:24.240Z,9.38
2023-03-07T11:28:31.861Z,9.47
2023-03-07T11:33:59.115Z,9.44
2023-03-07T11:39:05.348Z,9.26
2023-03-07T11:44:32.079Z,9.28
2023-03-07T11:49:53.336Z,9.18
2023-03-07T11:54:57.948Z,9.42
2023-03-07T12:00:22.350Z,9.50
2023-03-07T12:05:33.366Z,9.48
2023-03-07T12:10:43.805Z,9.60
2023-03-07T12:16:00.923Z,9.63
2023-03-07T12:21:22.815Z,9.71
2023-03-07T12:26:56.338Z,9.74
2023-03-07T12:32:03.359Z,9.85
2023-03-07T12:37:17.176Z,9.85
2023-03-07T12:42:43.592Z,9.72
2023-03-07T12:48:05.604Z,9.58
2023-03-07T12:53:09.966Z,9.54
2023-03-07T12:58:31.956Z,9.55
2023-03-07T13:04:04.185Z,9.36
2023-03-07T13:09:06.641Z,9.23
2023-03-07T13:14:30.640Z,9.17
2023-03-07T13:19:35.606Z,9.15
2023-03-07T13:24:40.133Z,9.21
2023-03-07T13:30:03.647Z,9.29
2023-03-07T13:35:09.843Z,9.16
2023-03-07T13:40:30.431Z,9.04
2023-03-07T13:45:38.385Z,8.99
2023-03-07T13:50:43.169Z,8.90
2023-03-07T13:55:47.432Z,8.83
2023-03-07T14:00:58.367Z,8.80
2023-03-07T14:06:07.935Z,8.75
2023-03-07T14:11:27.336Z,8.84
2023-03-07T14:16:38.313Z,9.07
2023-03-07T14:21:48.945Z,9.39
2023-03-07T14:26:56.664Z,9.50
2023-03-07T14:32:00.844Z,9.39
2023-03-07T14:37:08.956Z,9.47
2023-03-07T14:42:52.774Z,9.49
2023-03-07T14:48:00.359Z,9.39
2023-03-07T14:53:20.868Z,9.20
2023-03-07T14:58:27.080Z,9.03
2023-03-07T15:03:29.344Z,8.93
2023-03-07T15:08:35.168Z,8.78
2023-03-07T15:13:42.008Z,8.58
2023-03-07T15:18:49.749Z,8.39
2023-03-07T15:23:57.332Z,8.19
2023-03-07T15:29:08.848Z,7.98
2023-03-07T15:34:20.711Z,7.82
2023-03-07T15:39:28.675Z,7.68
2023-03-07T15:44:30.724Z,7.58
2023-03-07T15:49:43.578Z,7.54
2023-03-07T15:54:51.518Z,7.45
2023-03-07T16:00:08.801Z,7.38
2023-03-07T16:05:20.233Z,7.29
2023-03-07T16:10:27.025Z,7.21
2023-03-07T16:15:29.365Z,7.13
2023-03-07T16:20:31.139Z,7.03
2023-03-07T16:25:33.274Z,6.97
2023-03-07T16:30:34.957Z,6.92
2023-03-07T16:35:36.822Z,6.86
2023-03-07T16:40:43.991Z,6.78
2023-03-07T16:45:45.737Z,6.73
2023-03-07T16:50:47.429Z,6.72
2023-03-07T16:55:49.797Z,6.72
2023-03-07T17:00:52.534Z,6.70
2023-03-07T17:05:54.259Z,6.66
2023-03-07T17:10:56.104Z,6.67
2023-03-07T17:15:58.368Z,6.67
2023-03-07T17:21:00.167Z,6.67
2023-03-07T17:26:02.115Z,6.67
2023-03-07T17:31:03.905Z,6.66
2023-03-07T17:36:06.422Z,6.82
2023-03-07T17:41:08.407Z,7.30
2023-03-07T17:46:11.798Z,7.57
2023-03-07T17:51:13.521Z,7.74
2023-03-07T17:56:15.266Z,7.74
2023-03-07T18:01:17.845Z,7.71
2023-03-07T18:06:19.617Z,7.72
2023-03-07T18:11:21.388Z,7.63
2023-03-07T18:16:23.985Z,7.47
2023-03-07T18:21:26.649Z,7.40
2023-03-07T18:26:28.817Z,7.30
2023-03-07T18:31:30.552Z,7.26
2023-03-07T18:36:32.736Z,7.22
2023-03-07T18:41:34.676Z,7.27
2023-03-07T18:46:37.392Z,7.38
2023-03-07T18:51:39.796Z,7.38
2023-03-07T18:56:42.774Z,7.33
2023-03-07T19:01:45.774Z,7.23
2023-03-07T19:06:48.635Z,7.27
2023-03-07T19:11:50.581Z,7.30
2023-03-07T19:16:52.660Z,7.22
2023-03-07T19:21:54.940Z,7.15
2023-03-07T19:26:57.848Z,7.12
2023-03-07T19:31:59.823Z,7.13
2023-03-07T19:37:01.920Z,7.14
2023-03-07T19:42:04.538Z,7.11
2023-03-07T19:47:06.489Z,7.11
2023-03-07T19:52:09.399Z,7.03
2023-03-07T19:57:15.094Z,7.03
2023-03-07T20:02:17.036Z,7.07
2023-03-07T20:07:18.808Z,6.99
2023-03-07T20:12:20.592Z,6.99
2023-03-07T20:17:22.347Z,6.92
2023-03-07T20:22:24.711Z,6.92
2023-03-07T20:27:27.163Z,6.93
2023-03-07T20:32:31.409Z,6.98
2023-03-07T20:37:34.081Z,6.99
2023-03-07T20:42:35.839Z,6.94
2023-03-07T20:47:38.502Z,6.96
2023-03-07T20:52:40.318Z,6.82
2023-03-07T20:57:42.191Z,6.76
2023-03-07T21:02:45.429Z,6.79
2023-03-07T21:07:50.128Z,6.68
2023-03-07T21:12:51.858Z,6.67
2023-03-07T21:17:53.804Z,6.66
2023-03-07T21:22:55.503Z,6.61
2023-03-07T21:27:57.260Z,6.61
2023-03-07T21:32:59.040Z,6.56
2023-03-07T21:38:00.745Z,6.55
2023-03-07T21:43:02.486Z,6.54
2023-03-07T21:48:04.281Z,6.55
2023-03-07T21:53:06.337Z,6.55
2023-03-07T21:58:08.195Z,6.54
2023-03-07T22:03:09.999Z,6.47
2023-03-07T22:08:12.830Z,6.46
2023-03-07T22:13:18.753Z,6.43
2023-03-07T22:18:21.786Z,6.42
2023-03-07T22:23:24.157Z,6.43
2023-03-07T22:28:26.020Z,6.45
2023-03-07T22:33:29.941Z,6.54
2023-03-07T22:38:32.250Z,6.47
2023-03-07T22:43:36.126Z,6.50
2023-03-07T22:48:38.943Z,6.43
2023-03-07T22:54:02.482Z,6.36
2023-03-07T22:59:05.534Z,6.33
2023-03-07T23:04:08.153Z,6.24
2023-03-07T23:09:10.270Z,6.25
2023-03-07T23:14:12.168Z,6.22
2023-03-07T23:19:14.748Z,6.26
2023-03-07T23:24:16.608Z,6.22
2023-03-07T23:29:18.402Z,6.20
2023-03-07T23:34:20.370Z,6.13
2023-03-07T23:39:22.202Z,6.10
2023-03-07T23:44:24.001Z,6.10
2023-03-07T23:49:26.045Z,6.01
2023-03-07T23:54:27.850Z,6.00
2023-03-07T23:59:29.725Z,5.99
